METAR Data

Data at: 1237 UTC 24 May 2022

METAR for:KAUG (Augusta/State Arpt, ME, US)
Text:KAUG 241153Z AUTO 04011KT 10SM CLR 11/01 A3038 RMK AO2 SLP289 T01110011 10111 20061 51008
Temperature: 11.1°C ( 52°F)
Dewpoint: 1.1°C ( 34°F) [RH = 50%]
Pressure (altimeter):30.38 inches Hg (1028.9 mb) [Sea level pressure: 1028.9 mb]
Winds:from the NE (40 degrees) at 13 MPH (11 knots; 5.7 m/s)
Visibility:10 or more sm (16+ km)
Ceiling:at least 12,000 feet AGL
Clouds:sky clear below 12,000 feet AGL
QC Flag:automated observation with no human augmentation